createdAt,value
2023-01-21T00:02:07.691Z,35.03
2023-01-21T00:04:36.927Z,32.03
2023-01-21T00:07:07.511Z,36.13
2023-01-21T00:09:34.895Z,33.27
2023-01-21T00:12:03.006Z,32.43
2023-01-21T00:14:32.825Z,30.57
2023-01-21T00:17:04.986Z,31.83
2023-01-21T00:19:34.482Z,34.43
2023-01-21T00:22:01.730Z,33.20
2023-01-21T00:24:33.359Z,34.63
2023-01-21T00:27:02.980Z,33.15
2023-01-21T00:29:30.266Z,34.03
2023-01-21T00:31:57.860Z,33.40
2023-01-21T00:34:27.774Z,31.03
2023-01-21T00:36:57.768Z,32.33
2023-01-21T00:39:27.627Z,31.07
2023-01-21T00:41:54.884Z,29.87
2023-01-21T00:44:24.574Z,31.40
2023-01-21T00:46:53.970Z,31.23
2023-01-21T00:49:21.321Z,33.23
2023-01-21T00:51:48.609Z,33.53
2023-01-21T00:54:18.333Z,33.40
2023-01-21T00:56:45.778Z,30.77
2023-01-21T00:59:15.696Z,31.57
2023-01-21T01:01:43.568Z,28.47
2023-01-21T01:04:13.814Z,32.20
2023-01-21T01:06:43.083Z,31.67
2023-01-21T01:09:11.969Z,30.20
2023-01-21T01:11:42.077Z,30.50
2023-01-21T01:14:09.518Z,31.40
2023-01-21T01:16:36.984Z,29.43
2023-01-21T01:19:07.314Z,29.63
2023-01-21T01:21:39.993Z,32.50
2023-01-21T01:24:11.367Z,31.20
2023-01-21T01:26:42.368Z,32.88
2023-01-21T01:29:13.789Z,30.42
2023-01-21T01:31:41.287Z,30.35
2023-01-21T01:34:08.952Z,31.13
2023-01-21T01:36:36.431Z,30.77
2023-01-21T01:39:04.940Z,32.17
2023-01-21T01:41:35.159Z,28.10
2023-01-21T01:44:26.175Z,31.17
2023-01-21T01:46:57.977Z,33.47
2023-01-21T01:51:57.211Z,29.73
2023-01-21T01:54:39.329Z,29.20
2023-01-21T01:57:13.016Z,30.43
2023-01-21T01:59:43.591Z,27.30
2023-01-21T02:02:16.925Z,28.33
2023-01-21T02:05:01.443Z,29.57
2023-01-21T02:07:33.161Z,30.40
2023-01-21T02:10:00.753Z,27.35
2023-01-21T02:12:30.443Z,27.97
2023-01-21T02:14:59.826Z,28.27
2023-01-21T02:17:49.864Z,30.97
2023-01-21T02:21:08.204Z,29.37
2023-01-21T02:23:53.516Z,30.27
2023-01-21T02:26:42.368Z,27.50
2023-01-21T02:29:41.603Z,25.77
2023-01-21T02:32:20.723Z,27.43
2023-01-21T02:35:18.227Z,30.93
2023-01-21T02:37:50.970Z,25.73
2023-01-21T02:40:34.920Z,28.10
2023-01-21T02:43:18.412Z,26.87
2023-01-21T02:46:24.506Z,28.33
2023-01-21T02:49:10.012Z,27.73
2023-01-21T02:51:39.390Z,30.00
2023-01-21T02:54:35.976Z,27.47
2023-01-21T02:57:04.171Z,26.60
2023-01-21T02:59:34.615Z,26.73
2023-01-21T03:02:23.244Z,29.43
2023-01-21T03:04:50.623Z,24.43
2023-01-21T03:07:37.111Z,29.20
2023-01-21T03:10:31.721Z,24.40
2023-01-21T03:13:13.441Z,25.80
2023-01-21T03:16:12.875Z,25.52
2023-01-21T03:18:48.031Z,25.83
2023-01-21T03:21:26.336Z,25.27
2023-01-21T03:23:55.568Z,25.43
2023-01-21T03:26:32.097Z,24.30
2023-01-21T03:29:04.911Z,25.47
2023-01-21T03:31:35.118Z,22.73
2023-01-21T03:34:12.437Z,24.93
2023-01-21T03:36:45.444Z,25.47
2023-01-21T03:39:24.748Z,26.83
2023-01-21T03:41:54.696Z,24.73
2023-01-21T03:44:24.609Z,25.93
2023-01-21T03:47:08.653Z,23.23
2023-01-21T03:49:41.528Z,25.83
2023-01-21T03:52:12.188Z,23.00
2023-01-21T03:54:42.782Z,24.73
2023-01-21T03:57:10.054Z,21.77
2023-01-21T03:59:39.475Z,25.43
2023-01-21T04:02:06.885Z,22.27
2023-01-21T04:04:36.833Z,23.50
2023-01-21T04:07:07.171Z,23.57
2023-01-21T04:09:34.442Z,23.33
2023-01-21T04:12:01.801Z,22.10
2023-01-21T04:14:29.213Z,20.53
2023-01-21T04:16:59.635Z,22.27
2023-01-21T04:19:26.986Z,21.73
2023-01-21T04:21:54.273Z,20.87
2023-01-21T04:24:23.884Z,21.70
2023-01-21T04:26:54.140Z,23.50
2023-01-21T04:29:23.867Z,22.67
2023-01-21T04:31:51.254Z,19.40
2023-01-21T04:34:18.559Z,22.07
2023-01-21T04:36:46.736Z,22.40
2023-01-21T04:39:14.045Z,23.17
2023-01-21T04:41:41.388Z,22.40
2023-01-21T04:44:08.751Z,22.73
2023-01-21T04:46:36.098Z,23.43
2023-01-21T04:49:03.575Z,22.63
2023-01-21T04:51:30.871Z,25.10
2023-01-21T04:54:00.453Z,23.57
2023-01-21T04:56:30.214Z,23.13
2023-01-21T04:58:57.465Z,22.93
2023-01-21T05:01:30.156Z,21.90
2023-01-21T05:03:57.573Z,23.27
2023-01-21T05:06:24.892Z,23.37
2023-01-21T05:08:54.647Z,21.70
2023-01-21T05:11:26.729Z,21.97
2023-01-21T05:13:54.051Z,22.20
2023-01-21T05:16:23.754Z,19.50
2023-01-21T05:18:51.062Z,21.13
2023-01-21T05:21:20.567Z,21.90
2023-01-21T05:23:52.370Z,20.50
2023-01-21T05:28:46.722Z,20.07
2023-01-21T05:31:16.532Z,19.20
2023-01-21T05:33:46.013Z,20.90
2023-01-21T05:36:13.569Z,19.77
2023-01-21T05:38:43.321Z,18.47
2023-01-21T05:41:16.222Z,19.77
2023-01-21T05:43:43.496Z,20.33
2023-01-21T05:46:10.798Z,21.63
2023-01-21T05:48:40.468Z,19.67
2023-01-21T05:51:07.716Z,19.67
2023-01-21T05:53:35.034Z,18.20
2023-01-21T05:56:02.360Z,18.27
2023-01-21T05:58:29.682Z,21.90
2023-01-21T06:00:58.434Z,18.00
2023-01-21T06:03:26.666Z,19.37
2023-01-21T06:05:56.382Z,19.10
2023-01-21T06:08:25.913Z,18.90
2023-01-21T06:10:56.775Z,18.50
2023-01-21T06:13:26.784Z,17.10
2023-01-21T06:15:58.046Z,20.07
2023-01-21T06:18:27.954Z,20.38
2023-01-21T06:20:58.721Z,20.50
2023-01-21T06:23:26.363Z,20.20
2023-01-21T06:25:58.677Z,19.97
2023-01-21T06:28:26.006Z,17.40
2023-01-21T06:30:56.284Z,18.03
2023-01-21T06:33:26.171Z,21.40
2023-01-21T06:35:55.971Z,17.73
2023-01-21T06:38:23.307Z,17.37
2023-01-21T06:40:50.815Z,15.33
2023-01-21T06:43:22.505Z,15.40
2023-01-21T06:45:54.193Z,18.02
2023-01-21T06:48:24.240Z,16.67
2023-01-21T06:50:51.575Z,14.60
2023-01-21T06:53:18.932Z,19.20
2023-01-21T06:55:48.125Z,15.13
2023-01-21T06:58:17.847Z,15.63
2023-01-21T07:00:45.169Z,17.53
2023-01-21T07:03:12.451Z,16.53
2023-01-21T07:05:39.755Z,15.40
2023-01-21T07:08:07.203Z,17.53
2023-01-21T07:10:36.759Z,17.53
2023-01-21T07:13:06.443Z,16.57
2023-01-21T07:15:35.886Z,16.07
2023-01-21T07:18:03.241Z,19.73
2023-01-21T07:20:34.214Z,17.17
2023-01-21T07:23:06.222Z,16.52
2023-01-21T07:25:36.202Z,13.87
2023-01-21T07:28:08.197Z,16.70
2023-01-21T07:30:35.546Z,15.63
2023-01-21T07:33:09.798Z,15.07
2023-01-21T07:35:39.338Z,16.17
2023-01-21T07:38:07.390Z,14.80
2023-01-21T07:40:38.203Z,17.37
2023-01-21T07:43:05.591Z,16.23
2023-01-21T07:45:33.092Z,14.90
2023-01-21T07:48:00.535Z,12.67
2023-01-21T07:50:28.081Z,15.03
2023-01-21T07:52:55.665Z,14.80
2023-01-21T07:55:23.183Z,12.67
2023-01-21T07:57:50.543Z,12.03
2023-01-21T08:00:24.106Z,16.67
2023-01-21T08:02:54.047Z,14.23
2023-01-21T08:05:25.524Z,15.67
2023-01-21T08:07:58.514Z,12.75
2023-01-21T08:10:26.174Z,15.33
2023-01-21T08:12:53.531Z,12.97
2023-01-21T08:15:20.858Z,18.93
2023-01-21T08:17:48.889Z,13.93
2023-01-21T08:20:18.709Z,14.17
2023-01-21T08:22:46.177Z,14.90
2023-01-21T08:25:13.614Z,14.00
2023-01-21T08:27:45.875Z,13.40
2023-01-21T08:30:13.552Z,14.80
2023-01-21T08:32:40.881Z,13.53
2023-01-21T08:35:08.866Z,14.00
2023-01-21T08:37:41.169Z,13.40
2023-01-21T08:40:09.184Z,23.23
2023-01-21T08:42:36.727Z,17.40
2023-01-21T08:45:07.475Z,14.63
2023-01-21T08:47:35.518Z,17.80
2023-01-21T08:50:03.508Z,20.70
2023-01-21T08:52:33.112Z,20.03
2023-01-21T08:55:00.556Z,17.80
2023-01-21T08:57:30.548Z,14.93
2023-01-21T08:59:58.082Z,15.87
2023-01-21T09:02:25.645Z,15.97
2023-01-21T09:04:53.039Z,16.07
2023-01-21T09:07:20.726Z,13.13
2023-01-21T09:09:48.960Z,14.63
2023-01-21T09:12:16.629Z,11.83
2023-01-21T09:14:49.623Z,13.30
2023-01-21T09:17:17.170Z,13.63
2023-01-21T09:19:44.560Z,14.50
2023-01-21T09:22:11.984Z,16.60
2023-01-21T09:24:39.487Z,14.53
2023-01-21T09:27:10.384Z,13.67
2023-01-21T09:29:37.720Z,16.60
2023-01-21T09:32:05.453Z,14.80
2023-01-21T09:34:35.485Z,14.23
2023-01-21T09:37:05.081Z,14.20
2023-01-21T09:39:37.601Z,15.67
2023-01-21T09:42:05.041Z,16.80
2023-01-21T09:44:44.023Z,13.97
2023-01-21T09:47:17.488Z,17.07
2023-01-21T09:49:51.365Z,14.13
2023-01-21T09:52:27.132Z,14.43
2023-01-21T09:54:58.434Z,14.43
2023-01-21T09:58:10.037Z,15.05
2023-01-21T10:00:43.983Z,13.55
2023-01-21T10:03:29.396Z,14.77
2023-01-21T10:06:13.395Z,13.63
2023-01-21T10:09:02.247Z,12.27
2023-01-21T10:11:32.650Z,14.60
2023-01-21T10:14:45.752Z,15.67
2023-01-21T10:18:00.990Z,15.47
2023-01-21T10:20:28.229Z,17.37
2023-01-21T10:23:02.397Z,14.00
2023-01-21T10:25:35.957Z,16.43
2023-01-21T10:28:14.805Z,14.13
2023-01-21T10:30:50.051Z,14.57
2023-01-21T10:33:24.199Z,12.90
2023-01-21T10:36:13.335Z,17.10
2023-01-21T10:38:57.715Z,16.17
2023-01-21T10:41:45.316Z,15.77
2023-01-21T10:44:21.451Z,15.37
2023-01-21T10:47:03.137Z,14.53
2023-01-21T10:49:49.089Z,15.05
2023-01-21T10:52:45.131Z,15.37
2023-01-21T10:55:35.245Z,13.63
2023-01-21T10:58:05.997Z,13.57
2023-01-21T11:00:43.959Z,15.13
2023-01-21T11:03:22.481Z,14.23
2023-01-21T11:05:55.328Z,14.23
2023-01-21T11:08:25.580Z,12.37
2023-01-21T11:10:55.402Z,13.33
2023-01-21T11:13:23.623Z,11.50
2023-01-21T11:15:57.917Z,13.63
2023-01-21T11:18:45.767Z,13.90
2023-01-21T11:21:24.923Z,13.30
2023-01-21T11:24:00.464Z,13.03
2023-01-21T11:26:37.124Z,13.50
2023-01-21T11:29:15.962Z,13.80
2023-01-21T11:31:48.503Z,13.17
2023-01-21T11:34:21.105Z,14.43
2023-01-21T11:37:04.132Z,13.50
2023-01-21T11:39:38.664Z,14.60
2023-01-21T11:42:15.787Z,17.60
2023-01-21T11:44:56.674Z,13.97
2023-01-21T11:47:38.281Z,14.20
2023-01-21T11:50:13.872Z,15.23
2023-01-21T11:52:44.082Z,13.80
2023-01-21T11:55:25.420Z,16.15
2023-01-21T11:57:55.988Z,14.55
2023-01-21T12:00:27.614Z,15.20
2023-01-21T12:03:00.327Z,14.25
2023-01-21T12:05:49.571Z,15.10
2023-01-21T12:08:32.692Z,16.73
2023-01-21T12:11:04.692Z,16.70
2023-01-21T12:13:49.272Z,13.93
2023-01-21T12:16:35.317Z,14.70
2023-01-21T12:19:27.473Z,13.93
2023-01-21T12:22:09.877Z,12.87
2023-01-21T12:24:40.205Z,14.23
2023-01-21T12:27:24.016Z,14.53
2023-01-21T12:30:20.606Z,13.63
2023-01-21T12:33:09.700Z,13.37
2023-01-21T12:35:41.998Z,14.75
2023-01-21T12:38:26.725Z,13.20
2023-01-21T12:40:57.302Z,14.57
2023-01-21T12:43:38.732Z,15.88
2023-01-21T12:46:36.990Z,12.00
2023-01-21T12:49:19.764Z,11.60
2023-01-21T12:52:01.018Z,15.43
2023-01-21T12:54:48.473Z,11.47
2023-01-21T12:57:27.286Z,14.30
2023-01-21T13:00:06.065Z,13.20
2023-01-21T13:02:52.895Z,13.02
2023-01-21T13:05:35.377Z,12.85
2023-01-21T13:08:18.013Z,15.77
2023-01-21T13:10:50.666Z,14.32
2023-01-21T13:13:35.449Z,12.60
2023-01-21T13:16:07.755Z,15.80
2023-01-21T13:18:38.507Z,11.83
2023-01-21T13:21:28.766Z,13.65
2023-01-21T13:24:17.065Z,13.93
2023-01-21T13:26:57.903Z,12.70
2023-01-21T13:29:53.395Z,14.50
2023-01-21T13:32:31.974Z,12.13
2023-01-21T13:35:29.835Z,12.68
2023-01-21T13:38:29.546Z,10.43
2023-01-21T13:41:15.374Z,17.90
2023-01-21T13:43:55.287Z,80.53
2023-01-21T13:46:46.886Z,39.50
2023-01-21T13:49:41.697Z,21.55
2023-01-21T13:52:49.976Z,17.13
2023-01-21T13:55:28.035Z,17.83
2023-01-21T13:58:29.376Z,13.47
2023-01-21T14:01:03.565Z,14.77
2023-01-21T14:03:39.739Z,14.85
2023-01-21T14:09:45.691Z,15.83
2023-01-21T14:12:59.540Z,12.63
2023-01-21T14:15:34.608Z,12.82
2023-01-21T14:18:54.972Z,12.03
2023-01-21T14:21:42.767Z,10.93
2023-01-21T14:24:15.616Z,13.33
2023-01-21T14:26:45.591Z,15.73
2023-01-21T14:29:32.127Z,18.30
2023-01-21T14:32:19.409Z,15.87
2023-01-21T14:35:02.512Z,13.50
2023-01-21T14:37:44.240Z,12.52
2023-01-21T14:40:27.454Z,11.70
2023-01-21T14:42:59.214Z,11.50
2023-01-21T14:48:29.782Z,13.00
2023-01-21T14:51:21.400Z,10.90
2023-01-21T14:53:51.146Z,12.05
2023-01-21T14:56:37.843Z,13.50
2023-01-21T14:59:10.992Z,11.93
2023-01-21T15:01:46.094Z,10.90
2023-01-21T15:04:42.517Z,11.03
2023-01-21T15:07:22.051Z,11.83
2023-01-21T15:09:56.150Z,11.87
2023-01-21T15:12:28.793Z,11.93
2023-01-21T15:15:02.250Z,9.93
2023-01-21T15:17:46.812Z,11.53
2023-01-21T15:20:39.843Z,11.57
2023-01-21T15:23:19.234Z,11.77
2023-01-21T15:26:07.599Z,11.67
2023-01-21T15:28:56.240Z,12.77
2023-01-21T15:31:23.850Z,11.87
2023-01-21T15:34:04.058Z,12.00
2023-01-21T15:36:44.207Z,9.43
2023-01-21T15:39:23.454Z,10.57
2023-01-21T15:42:18.940Z,12.33
2023-01-21T15:45:09.860Z,10.03
2023-01-21T15:48:41.624Z,11.17
2023-01-21T15:54:05.579Z,11.93
2023-01-21T15:56:45.067Z,10.23
2023-01-21T15:59:18.445Z,10.47
2023-01-21T16:01:49.125Z,12.17
2023-01-21T16:04:16.455Z,9.40
2023-01-21T16:06:46.403Z,9.50
2023-01-21T16:09:40.507Z,11.10
2023-01-21T16:12:22.610Z,11.40
2023-01-21T16:14:59.841Z,12.33
2023-01-21T16:17:48.787Z,8.83
2023-01-21T16:20:17.430Z,9.67
2023-01-21T16:22:52.102Z,9.87
2023-01-21T16:25:24.132Z,11.43
2023-01-21T16:27:55.775Z,8.97
2023-01-21T16:30:30.319Z,9.98
2023-01-21T16:33:10.219Z,10.43
2023-01-21T16:35:50.324Z,10.73
2023-01-21T16:38:21.275Z,9.13
2023-01-21T16:40:50.883Z,11.00
2023-01-21T16:43:24.114Z,10.30
2023-01-21T16:45:54.100Z,14.27
2023-01-21T16:48:27.944Z,11.80
2023-01-21T16:50:55.717Z,11.73
2023-01-21T16:53:27.311Z,14.03
2023-01-21T16:55:57.007Z,10.75
2023-01-21T16:58:35.127Z,11.33
2023-01-21T17:01:06.083Z,23.63
2023-01-21T17:03:34.080Z,24.33
2023-01-21T17:06:09.984Z,27.70
2023-01-21T17:08:40.446Z,17.83
2023-01-21T17:11:13.974Z,14.40
2023-01-21T17:13:45.463Z,13.87
2023-01-21T17:16:34.405Z,22.92
2023-01-21T17:19:05.813Z,14.93
2023-01-21T17:21:46.804Z,14.88
2023-01-21T17:24:40.449Z,21.92
2023-01-21T17:27:11.364Z,19.07
2023-01-21T17:29:38.951Z,16.48
2023-01-21T17:32:24.536Z,13.57
2023-01-21T17:35:16.789Z,21.03
2023-01-21T17:37:56.401Z,20.87
2023-01-21T17:40:37.667Z,22.23
2023-01-21T17:43:24.840Z,17.75
2023-01-21T17:45:55.046Z,13.90
2023-01-21T17:48:34.202Z,20.33
2023-01-21T17:51:07.345Z,12.73
2023-01-21T17:53:44.212Z,13.27
2023-01-21T17:56:13.549Z,13.87
2023-01-21T17:58:53.379Z,13.13
2023-01-21T18:01:21.532Z,13.83
2023-01-21T18:04:01.168Z,13.47
2023-01-21T18:06:33.336Z,14.70
2023-01-21T18:09:02.243Z,12.73
2023-01-21T18:11:29.675Z,12.87
2023-01-21T18:13:58.255Z,13.00
2023-01-21T18:16:28.883Z,12.67
2023-01-21T18:18:56.551Z,13.03
2023-01-21T18:21:23.920Z,13.67
2023-01-21T18:23:53.528Z,12.13
2023-01-21T18:26:29.976Z,11.10
2023-01-21T18:28:57.467Z,15.27
2023-01-21T18:31:25.110Z,14.07
2023-01-21T18:33:54.683Z,16.37
2023-01-21T18:36:23.329Z,19.83
2023-01-21T18:38:50.824Z,14.70
2023-01-21T18:41:20.967Z,15.20
2023-01-21T18:43:50.755Z,21.17
2023-01-21T18:46:20.065Z,22.70
2023-01-21T18:48:49.849Z,17.43
2023-01-21T18:51:17.817Z,15.20
2023-01-21T18:53:45.330Z,14.23
2023-01-21T18:56:16.376Z,14.33
2023-01-21T18:58:43.809Z,15.38
2023-01-21T19:01:23.177Z,14.80
2023-01-21T19:03:55.026Z,13.90
2023-01-21T19:06:24.162Z,13.40
2023-01-21T19:08:59.148Z,13.03
2023-01-21T19:11:27.219Z,16.03
2023-01-21T19:13:54.581Z,14.43
2023-01-21T19:16:57.520Z,15.87
2023-01-21T19:19:25.500Z,17.00
2023-01-21T19:21:55.517Z,13.20
2023-01-21T19:24:22.828Z,12.70
2023-01-21T19:26:51.258Z,13.17
2023-01-21T19:29:25.045Z,12.10
2023-01-21T19:31:54.909Z,14.87
2023-01-21T19:34:25.086Z,15.27
2023-01-21T19:36:53.403Z,12.60
2023-01-21T19:39:31.518Z,13.13
2023-01-21T19:42:07.986Z,14.17
2023-01-21T19:44:36.053Z,13.97
2023-01-21T19:47:06.589Z,13.67
2023-01-21T19:49:34.168Z,12.07
2023-01-21T19:52:01.700Z,13.70
2023-01-21T19:54:36.267Z,11.17
2023-01-21T19:57:03.671Z,13.23
2023-01-21T19:59:34.814Z,14.27
2023-01-21T20:02:04.477Z,14.32
2023-01-21T20:04:32.110Z,14.00
2023-01-21T20:06:59.515Z,14.90
2023-01-21T20:09:29.985Z,12.60
2023-01-21T20:11:57.560Z,11.37
2023-01-21T20:14:25.001Z,12.43
2023-01-21T20:16:56.638Z,12.07
2023-01-21T20:19:24.387Z,11.45
2023-01-21T20:22:01.611Z,13.27
2023-01-21T20:24:34.204Z,11.50
2023-01-21T20:27:04.686Z,20.77
2023-01-21T20:29:33.649Z,21.10
2023-01-21T20:32:00.979Z,30.33
2023-01-21T20:34:43.527Z,23.97
2023-01-21T20:37:15.313Z,21.50
2023-01-21T20:42:12.236Z,16.97
2023-01-21T20:44:39.892Z,13.50
2023-01-21T20:47:09.061Z,13.03
2023-01-21T20:49:36.374Z,10.77
2023-01-21T20:52:03.812Z,14.20
2023-01-21T20:54:31.163Z,12.97
2023-01-21T20:57:01.283Z,13.80
2023-01-21T20:59:28.697Z,15.03
2023-01-21T21:02:00.620Z,12.20
2023-01-21T21:04:30.267Z,11.77
2023-01-21T21:06:57.546Z,9.57
2023-01-21T21:09:24.795Z,11.23
2023-01-21T21:11:52.143Z,9.73
2023-01-21T21:14:20.667Z,10.43
2023-01-21T21:16:48.761Z,13.77
2023-01-21T21:19:16.501Z,10.57
2023-01-21T21:21:46.295Z,11.83
2023-01-21T21:24:13.629Z,11.70
2023-01-21T21:26:41.413Z,11.87
2023-01-21T21:29:13.334Z,11.30
2023-01-21T21:31:42.917Z,11.53
2023-01-21T21:34:10.603Z,11.20
2023-01-21T21:36:48.165Z,11.93
2023-01-21T21:39:19.251Z,16.93
2023-01-21T21:42:05.545Z,15.43
2023-01-21T21:44:33.476Z,16.67
2023-01-21T21:47:21.771Z,16.17
2023-01-21T21:49:49.353Z,17.47
2023-01-21T21:52:18.713Z,16.50
2023-01-21T21:54:50.889Z,15.63
2023-01-21T21:57:20.893Z,15.30
2023-01-21T21:59:48.183Z,15.87
2023-01-21T22:02:18.241Z,13.60
2023-01-21T22:04:53.205Z,13.20
2023-01-21T22:07:20.584Z,15.03
2023-01-21T22:09:50.196Z,15.43
2023-01-21T22:12:17.534Z,19.27
2023-01-21T22:14:44.875Z,14.93
2023-01-21T22:17:15.232Z,14.77
2023-01-21T22:19:42.612Z,16.40
2023-01-21T22:22:10.041Z,16.13
2023-01-21T22:24:37.451Z,16.23
2023-01-21T22:27:08.265Z,15.37
2023-01-21T22:29:38.166Z,15.27
2023-01-21T22:32:06.392Z,14.00
2023-01-21T22:34:36.911Z,13.67
2023-01-21T22:37:04.226Z,13.63
2023-01-21T22:39:33.415Z,15.33
2023-01-21T22:42:03.084Z,14.63
2023-01-21T22:44:30.553Z,15.53
2023-01-21T22:47:00.058Z,13.43
2023-01-21T22:49:27.382Z,14.20
2023-01-21T22:51:56.780Z,13.80
2023-01-21T22:54:24.710Z,14.20
2023-01-21T22:56:53.187Z,14.13
2023-01-21T22:59:22.756Z,14.80
2023-01-21T23:01:54.991Z,13.93
2023-01-21T23:04:27.017Z,13.37
2023-01-21T23:06:55.175Z,12.83
2023-01-21T23:09:31.908Z,14.17
2023-01-21T23:11:59.417Z,12.83
2023-01-21T23:14:26.829Z,15.70
2023-01-21T23:16:54.146Z,13.77
2023-01-21T23:19:32.512Z,14.83
2023-01-21T23:22:05.289Z,14.47
2023-01-21T23:24:34.134Z,12.50
2023-01-21T23:27:01.467Z,12.97
2023-01-21T23:29:28.747Z,15.83
2023-01-21T23:31:57.778Z,14.67
2023-01-21T23:34:25.148Z,14.87
2023-01-21T23:36:54.949Z,13.97
2023-01-21T23:39:24.524Z,13.70
2023-01-21T23:41:54.997Z,14.07
2023-01-21T23:44:25.472Z,15.07
2023-01-21T23:46:53.053Z,15.67
2023-01-21T23:49:20.449Z,14.30
2023-01-21T23:51:48.196Z,15.07
2023-01-21T23:54:16.186Z,13.87
2023-01-21T23:56:45.705Z,15.03
2023-01-21T23:59:13.034Z,17.43
